Time;durP1;ratioP1;P1;durP2;ratioP2;P2;SDS_P1;SDS_P2;PMS_P1;PMS_P2;Temp;Humidity;BMP_temperature;BMP_pressure;BME280_temperature;BME280_humidity;BME280_pressure;Samples;Min_cycle;Max_cycle;Signal;HPM_P1;HPM_P2
2021/11/10 00:00:34;;;;;;;7.10;6.35;;;12.90;92.50;;;;;;4814895;29;20054;-71
2021/11/10 00:03:03;;;;;;;7.07;6.43;;;12.90;92.50;;;;;;4821011;29;20066;-71
2021/11/10 00:05:30;;;;;;;7.43;5.97;;;12.80;92.50;;;;;;4820386;29;20054;-70
2021/11/10 00:07:59;;;;;;;7.40;6.50;;;12.90;92.50;;;;;;4819935;29;20054;-71
2021/11/10 00:10:27;;;;;;;7.50;6.85;;;12.80;92.50;;;;;;4819797;29;20059;-70
2021/11/10 00:13:14;;;;;;;7.90;7.20;;;12.80;92.50;;;;;;4823534;29;20046;-70
2021/11/10 00:15:43;;;;;;;8.45;7.63;;;12.80;92.50;;;;;;4808309;29;20396;-70
2021/11/10 00:18:10;;;;;;;9.10;7.80;;;12.80;92.60;;;;;;4824000;29;20428;-70
2021/11/10 00:20:39;;;;;;;8.48;7.78;;;12.80;92.60;;;;;;4808022;29;20050;-70
2021/11/10 00:23:07;;;;;;;11.80;7.63;;;12.80;92.70;;;;;;4822942;29;20058;-69
2021/11/10 00:25:34;;;;;;;11.18;8.70;;;12.80;92.70;;;;;;4823971;29;20054;-70
2021/11/10 00:28:05;;;;;;;9.35;8.38;;;12.80;92.70;;;;;;4823434;29;20054;-70
2021/11/10 00:30:33;;;;;;;8.73;8.02;;;12.80;92.70;;;;;;4842143;29;20065;-71
2021/11/10 00:33:01;;;;;;;10.10;9.10;;;12.80;92.80;;;;;;4825288;29;20062;-70
2021/11/10 00:35:28;;;;;;;8.93;8.02;;;12.80;92.90;;;;;;4841723;29;20072;-70
2021/11/10 00:37:56;;;;;;;9.30;8.23;;;12.80;92.90;;;;;;4840422;29;20042;-70
2021/11/10 00:40:24;;;;;;;4.45;4.15;;;12.80;92.90;;;;;;4842054;29;20065;-70
2021/11/10 00:42:52;;;;;;;5.05;4.65;;;12.80;92.90;;;;;;4840885;29;20489;-71
2021/11/10 00:45:21;;;;;;;4.20;3.90;;;12.70;92.80;;;;;;4829981;29;20058;-70
2021/11/10 00:47:48;;;;;;;3.35;3.13;;;12.60;92.60;;;;;;4822044;29;20057;-71
2021/11/10 00:50:16;;;;;;;3.17;2.97;;;12.50;92.40;;;;;;4822066;29;20042;-71
2021/11/10 00:52:44;;;;;;;2.88;2.67;;;12.30;92.30;;;;;;4823669;29;20073;-71
2021/11/10 00:55:12;;;;;;;4.53;2.78;;;12.20;92.40;;;;;;4839411;29;20055;-71
2021/11/10 00:57:39;;;;;;;3.85;3.40;;;12.10;92.30;;;;;;4821924;29;20049;-71
2021/11/10 01:00:08;;;;;;;5.15;3.80;;;11.90;92.20;;;;;;4826236;29;20069;-71
2021/11/10 01:02:35;;;;;;;6.72;4.22;;;11.80;92.20;;;;;;4835518;29;20057;-71
2021/11/10 01:05:04;;;;;;;5.88;4.28;;;11.70;92.30;;;;;;4821649;29;20054;-71
2021/11/10 01:07:32;;;;;;;5.90;4.43;;;11.60;92.30;;;;;;4821468;29;20421;-70
2021/11/10 01:10:01;;;;;;;7.43;4.55;;;11.50;92.30;;;;;;4821121;29;20061;-71
2021/11/10 01:12:30;;;;;;;6.80;4.57;;;11.30;92.30;;;;;;4821868;29;20077;-70
2021/11/10 01:14:59;;;;;;;6.53;4.07;;;11.30;92.40;;;;;;4807088;29;20047;-70
2021/11/10 01:17:27;;;;;;;6.05;4.90;;;11.20;92.50;;;;;;4806951;29;20046;-71
2021/11/10 01:19:55;;;;;;;6.57;3.80;;;11.20;92.50;;;;;;4821482;29;20065;-71
2021/11/10 01:22:23;;;;;;;4.63;3.72;;;11.00;92.50;;;;;;4821921;29;20054;-71
2021/11/10 01:24:51;;;;;;;6.57;3.38;;;11.00;92.60;;;;;;4806198;29;20154;-71
2021/11/10 01:27:18;;;;;;;9.38;3.40;;;11.00;92.60;;;;;;4806624;29;20050;-71
2021/11/10 01:29:48;;;;;;;4.70;3.15;;;10.90;92.60;;;;;;4822000;29;20425;-71
2021/11/10 01:32:15;;;;;;;7.57;4.10;;;10.90;92.60;;;;;;4836923;29;20054;-71
2021/11/10 01:34:45;;;;;;;6.35;3.50;;;10.80;92.60;;;;;;4821599;29;20054;-73
2021/11/10 01:37:15;;;;;;;6.55;4.10;;;10.80;92.70;;;;;;4821637;29;20053;-70
2021/11/10 01:39:43;;;;;;;7.18;3.50;;;10.80;92.70;;;;;;4821000;29;20066;-71
2021/11/10 01:42:15;;;;;;;5.57;4.30;;;10.80;92.70;;;;;;4836962;29;20050;-71
2021/11/10 01:44:47;;;;;;;6.72;4.13;;;10.80;92.70;;;;;;4821645;29;20153;-71
2021/11/10 01:47:15;;;;;;;9.55;4.55;;;10.80;92.70;;;;;;4806510;29;20058;-71
2021/11/10 01:49:44;;;;;;;5.65;4.18;;;10.80;92.70;;;;;;4806386;29;20043;-71
2021/11/10 01:52:14;;;;;;;6.28;4.07;;;10.80;92.70;;;;;;4821356;29;20050;-71
2021/11/10 01:54:43;;;;;;;5.57;3.72;;;10.80;92.70;;;;;;4806576;29;20061;-71
2021/11/10 01:57:17;;;;;;;6.55;4.03;;;10.80;92.80;;;;;;4806368;29;20054;-71
2021/11/10 02:00:01;;;;;;;5.40;4.18;;;10.80;92.80;;;;;;4790518;29;20054;-71
2021/11/10 02:02:40;;;;;;;5.97;4.40;;;10.80;92.80;;;;;;4822646;29;20046;-70
2021/11/10 02:05:13;;;;;;;6.50;4.85;;;10.70;92.80;;;;;;4808339;29;20073;-71
2021/11/10 02:07:43;;;;;;;6.07;5.20;;;10.80;92.80;;;;;;4803061;29;20056;-71
2021/11/10 02:10:14;;;;;;;5.90;5.28;;;10.80;92.90;;;;;;4818426;29;20516;-71
2021/11/10 02:12:42;;;;;;;6.15;5.53;;;10.80;92.90;;;;;;4802870;29;20509;-70
2021/11/10 02:15:14;;;;;;;8.52;6.20;;;10.80;92.90;;;;;;4772679;29;20413;-70
2021/11/10 02:17:45;;;;;;;9.32;6.50;;;10.80;92.90;;;;;;4817659;29;20062;-71
2021/11/10 02:20:13;;;;;;;3.03;2.72;;;10.80;93.00;;;;;;4801926;29;20055;-71
2021/11/10 02:22:44;;;;;;;5.82;1.30;;;10.80;92.90;;;;;;4787450;29;20062;-71
2021/11/10 02:25:13;;;;;;;1.67;1.58;;;10.80;92.30;;;;;;4804090;29;20062;-71
2021/11/10 02:27:41;;;;;;;1.50;1.17;;;10.70;92.10;;;;;;4803001;29;20142;-71
2021/11/10 02:30:14;;;;;;;1.42;1.33;;;10.60;92.00;;;;;;4817104;29;20053;-72
2021/11/10 02:32:52;;;;;;;6.18;1.98;;;10.50;91.90;;;;;;4817867;29;20059;-71
2021/11/10 02:35:23;;;;;;;2.78;1.77;;;10.30;91.90;;;;;;4801029;29;20054;-70
2021/11/10 02:37:53;;;;;;;4.45;2.13;;;10.30;92.00;;;;;;4832719;29;20043;-72
2021/11/10 02:40:22;;;;;;;5.20;2.60;;;10.30;92.10;;;;;;4821891;29;20409;-72
2021/11/10 02:42:51;;;;;;;6.22;2.65;;;10.30;92.20;;;;;;4821324;29;20062;-72
2021/11/10 02:45:20;;;;;;;3.88;2.17;;;10.20;92.30;;;;;;4805131;29;20058;-72
2021/11/10 02:47:48;;;;;;;8.88;2.30;;;10.20;92.30;;;;;;4805272;29;20400;-72
2021/11/10 02:50:16;;;;;;;8.70;2.05;;;10.20;92.30;;;;;;4805457;29;20058;-72
2021/11/10 02:52:44;;;;;;;11.55;2.28;;;10.10;92.20;;;;;;4805484;29;20061;-72
2021/11/10 02:55:12;;;;;;;10.60;2.10;;;10.10;92.10;;;;;;4790248;29;20069;-72
2021/11/10 02:57:40;;;;;;;8.60;2.38;;;10.10;92.20;;;;;;4804726;29;20058;-71
2021/11/10 03:00:09;;;;;;;7.72;2.00;;;10.00;92.20;;;;;;4806046;29;20061;-71
2021/11/10 03:02:41;;;;;;;;;;;10.00;92.10;;;;;;4824056;29;20050;-72
2021/11/10 03:05:09;;;;;;;8.38;2.03;;;10.00;92.20;;;;;;4835902;29;19931;-72
2021/11/10 03:07:37;;;;;;;11.52;2.28;;;9.90;92.20;;;;;;4820632;29;20057;-72
2021/11/10 03:10:05;;;;;;;10.40;2.28;;;9.90;92.20;;;;;;4820367;29;20069;-72
2021/11/10 03:12:35;;;;;;;8.02;2.28;;;9.90;92.20;;;;;;4820690;29;20046;-71
2021/11/10 03:15:04;;;;;;;5.28;1.95;;;9.90;92.30;;;;;;4804643;29;20058;-72
2021/11/10 03:17:32;;;;;;;15.52;2.00;;;9.90;92.30;;;;;;4820474;29;20061;-71
2021/11/10 03:20:04;;;;;;;12.15;2.20;;;9.90;92.40;;;;;;4819250;29;20453;-71
2021/11/10 03:22:35;;;;;;;10.18;1.92;;;9.90;92.40;;;;;;4819749;29;20054;-71
2021/11/10 03:25:04;;;;;;;7.07;2.05;;;9.90;92.40;;;;;;4820223;29;20073;-71
2021/11/10 03:27:33;;;;;;;8.48;1.98;;;9.90;92.40;;;;;;4816392;29;20051;-70
2021/11/10 03:30:06;;;;;;;8.75;2.10;;;9.90;92.40;;;;;;4802075;29;20067;-71
2021/11/10 03:32:52;;;;;;;15.90;2.55;;;9.90;92.40;;;;;;4787031;29;20498;-71
2021/11/10 03:35:20;;;;;;;9.02;1.95;;;9.90;92.40;;;;;;4786276;29;20047;-71
2021/11/10 03:37:48;;;;;;;8.77;1.73;;;9.90;92.40;;;;;;4803222;29;20043;-71
2021/11/10 03:40:19;;;;;;;8.75;2.08;;;9.90;92.50;;;;;;4801822;29;20066;-71
2021/11/10 03:42:50;;;;;;;7.65;1.95;;;9.90;92.50;;;;;;4802180;29;20038;-71
2021/11/10 03:45:23;;;;;;;12.43;2.33;;;9.90;92.50;;;;;;4828700;29;20065;-71
2021/11/10 03:47:51;;;;;;;11.35;2.53;;;9.90;92.50;;;;;;4822581;29;20370;-71
2021/11/10 03:50:20;;;;;;;10.05;2.40;;;9.90;92.50;;;;;;4823479;29;20398;-71
2021/11/10 03:52:48;;;;;;;10.38;2.45;;;9.90;92.50;;;;;;4828631;29;20041;-72
2021/11/10 03:55:17;;;;;;;10.02;2.05;;;9.90;92.50;;;;;;4841884;29;20050;-72
2021/11/10 03:57:46;;;;;;;9.98;2.25;;;9.90;92.50;;;;;;4841671;29;20090;-71
2021/11/10 04:00:14;;;;;;;7.25;1.98;;;9.90;92.50;;;;;;4826690;29;20073;-71
2021/11/10 04:02:43;;;;;;;8.15;2.30;;;9.90;92.50;;;;;;4840982;29;20050;-71
2021/11/10 04:05:32;;;;;;;14.07;2.50;;;9.90;92.50;;;;;;4842425;29;20066;-71
2021/11/10 04:07:59;;;;;;;7.88;3.13;;;9.90;92.50;;;;;;4839776;29;20050;-71
2021/11/10 04:10:28;;;;;;;7.15;2.60;;;9.90;92.50;;;;;;4823164;29;20054;-71
2021/11/10 04:12:56;;;;;;;11.95;2.75;;;9.80;92.50;;;;;;4825431;29;20550;-71
2021/11/10 04:15:31;;;;;;;9.18;2.88;;;9.90;92.50;;;;;;4841587;29;20050;-70
2021/11/10 04:17:59;;;;;;;12.23;3.30;;;9.80;92.50;;;;;;4841400;29;20425;-70
2021/11/10 04:20:28;;;;;;;9.50;3.38;;;9.80;92.60;;;;;;4841132;29;20282;-70
2021/11/10 04:22:57;;;;;;;11.68;4.72;;;9.80;92.60;;;;;;4841027;29;20057;-71
2021/11/10 04:25:25;;;;;;;12.77;5.43;;;9.80;92.60;;;;;;4841321;29;20412;-71
2021/11/10 04:27:53;;;;;;;15.52;6.50;;;9.80;92.60;;;;;;4829788;29;20047;-71
2021/11/10 04:30:26;;;;;;;13.07;6.38;;;9.80;92.60;;;;;;4792813;29;20058;-71
2021/11/10 04:32:54;;;;;;;11.80;6.82;;;9.80;92.60;;;;;;4822518;29;20058;-70
2021/11/10 04:35:22;;;;;;;12.82;6.28;;;9.80;92.70;;;;;;4822051;29;20485;-70
2021/11/10 04:37:52;;;;;;;11.07;6.75;;;9.80;92.70;;;;;;4821523;29;20050;-71
2021/11/10 04:40:20;;;;;;;14.15;6.75;;;9.80;92.70;;;;;;4808594;29;20054;-70
2021/11/10 04:42:47;;;;;;;13.88;7.97;;;9.80;92.70;;;;;;4824116;29;20047;-71
2021/11/10 04:45:29;;;;;;;12.70;7.25;;;9.80;92.70;;;;;;4823738;29;20046;-70
2021/11/10 04:47:57;;;;;;;14.80;7.88;;;9.80;92.70;;;;;;4831464;29;20072;-70
2021/11/10 04:50:25;;;;;;;15.90;8.45;;;9.80;92.70;;;;;;4841655;29;20054;-71
2021/11/10 04:52:53;;;;;;;22.33;8.60;;;9.80;92.70;;;;;;4843601;29;20049;-71
2021/11/10 04:55:21;;;;;;;14.30;8.35;;;9.80;92.80;;;;;;4836988;29;20049;-71
2021/11/10 04:57:48;;;;;;;13.30;7.88;;;9.80;92.80;;;;;;4842840;29;20053;-71
2021/11/10 05:00:16;;;;;;;14.00;7.18;;;9.80;92.80;;;;;;4842937;29;20168;-70
2021/11/10 05:02:50;;;;;;;13.30;7.18;;;9.80;92.80;;;;;;4840363;29;20057;-71
2021/11/10 05:05:21;;;;;;;12.25;6.65;;;9.70;92.80;;;;;;4808044;29;20054;-70
2021/11/10 05:07:50;;;;;;;12.35;5.97;;;9.70;92.80;;;;;;4808659;29;20057;-71
2021/11/10 05:10:18;;;;;;;15.48;6.47;;;9.70;92.80;;;;;;4823502;29;20489;-72
2021/11/10 05:12:53;;;;;;;12.77;6.05;;;9.70;92.90;;;;;;4822766;29;20058;-71
2021/11/10 05:15:21;;;;;;;10.77;6.18;;;9.70;92.90;;;;;;4822921;29;20505;-71
2021/11/10 05:17:49;;;;;;;16.08;6.60;;;9.70;92.90;;;;;;4808546;29;20069;-71
2021/11/10 05:20:21;;;;;;;17.13;6.95;;;9.60;92.90;;;;;;4823163;29;20055;-72
2021/11/10 05:22:49;;;;;;;14.98;7.60;;;9.70;93.00;;;;;;4817794;29;20046;-71
2021/11/10 05:25:17;;;;;;;14.30;8.63;;;9.60;92.90;;;;;;4828957;29;20054;-71
2021/11/10 05:27:45;;;;;;;14.43;8.70;;;9.60;93.00;;;;;;4806495;29;20074;-71
2021/11/10 05:30:15;;;;;;;20.95;9.20;;;9.60;93.00;;;;;;4804999;29;20212;-72
2021/11/10 05:32:46;;;;;;;14.80;9.32;;;9.60;93.00;;;;;;4811419;29;20055;-71
2021/11/10 05:35:14;;;;;;;17.48;9.45;;;9.60;93.10;;;;;;4814466;29;20063;-71
2021/11/10 05:37:42;;;;;;;17.63;9.27;;;9.60;93.10;;;;;;4815652;29;20065;-71
2021/11/10 05:40:10;;;;;;;20.52;9.40;;;9.60;93.10;;;;;;4815421;29;20066;-71
2021/11/10 05:42:38;;;;;;;27.17;11.00;;;9.60;93.10;;;;;;4815090;29;20421;-71
2021/11/10 05:45:06;;;;;;;35.00;11.38;;;9.60;93.10;;;;;;4812602;29;20047;-71
2021/11/10 05:47:34;;;;;;;31.77;13.15;;;9.70;93.10;;;;;;4812553;29;20070;-71
2021/11/10 05:50:07;;;;;;;35.92;15.27;;;9.60;93.10;;;;;;4812466;29;20508;-71
2021/11/10 05:52:35;;;;;;;30.30;15.52;;;9.60;93.20;;;;;;4816247;29;20054;-72
2021/11/10 05:55:04;;;;;;;36.33;15.57;;;9.60;93.20;;;;;;4814300;29;20486;-70
2021/11/10 05:57:34;;;;;;;34.47;15.18;;;9.60;93.20;;;;;;4812733;29;20057;-71
2021/11/10 06:00:04;;;;;;;32.08;14.68;;;9.60;93.20;;;;;;4813082;29;20054;-72
2021/11/10 06:02:42;;;;;;;28.40;14.35;;;9.60;93.30;;;;;;4816804;29;20059;-71
2021/11/10 06:05:11;;;;;;;27.13;13.10;;;9.60;93.30;;;;;;4827815;29;20051;-71
2021/11/10 06:07:38;;;;;;;31.02;14.70;;;9.60;93.30;;;;;;4815640;29;20046;-71
2021/11/10 06:10:06;;;;;;;29.45;14.48;;;9.60;93.30;;;;;;4827204;29;20043;-71
2021/11/10 06:12:34;;;;;;;28.38;13.90;;;9.60;93.30;;;;;;4816047;29;20501;-71
2021/11/10 06:15:01;;;;;;;26.35;14.35;;;9.60;93.30;;;;;;4813669;29;20062;-71
2021/11/10 06:17:29;;;;;;;32.95;13.50;;;9.60;93.40;;;;;;4813493;29;20059;-71
2021/11/10 06:19:57;;;;;;;32.35;14.85;;;9.60;93.40;;;;;;4811098;29;20493;-71
2021/11/10 06:22:24;;;;;;;30.77;14.68;;;9.60;93.40;;;;;;4803661;29;20059;-71
2021/11/10 06:24:52;;;;;;;31.77;14.25;;;9.60;93.40;;;;;;4804331;29;20066;-71
2021/11/10 06:27:20;;;;;;;28.83;14.20;;;9.60;93.40;;;;;;4814826;29;20062;-71
2021/11/10 06:29:47;;;;;;;33.88;14.95;;;9.60;93.40;;;;;;4805375;29;20493;-72
2021/11/10 06:32:15;;;;;;;30.00;14.85;;;9.60;93.40;;;;;;4824927;29;20607;-71
2021/11/10 06:34:43;;;;;;;38.78;16.30;;;9.60;93.50;;;;;;4841306;29;20057;-71
2021/11/10 06:37:10;;;;;;;34.65;16.08;;;9.60;93.50;;;;;;4820829;29;20055;-71
2021/11/10 06:39:38;;;;;;;32.88;15.70;;;9.60;93.60;;;;;;4826018;29;20060;-71
2021/11/10 06:42:07;;;;;;;39.47;15.07;;;9.60;93.60;;;;;;4841649;29;20519;-71
2021/11/10 06:44:35;;;;;;;46.58;17.73;;;9.60;93.60;;;;;;4834753;29;20513;-71
2021/11/10 06:47:03;;;;;;;44.65;17.63;;;9.60;93.70;;;;;;4815689;29;20047;-71
2021/11/10 06:49:31;;;;;;;43.22;19.05;;;9.60;93.70;;;;;;4804697;29;20062;-71
2021/11/10 06:52:00;;;;;;;57.60;23.30;;;9.60;93.70;;;;;;4805014;29;20055;-71
2021/11/10 06:54:27;;;;;;;45.92;18.77;;;9.60;93.70;;;;;;4831026;29;20055;-70
2021/11/10 06:56:55;;;;;;;41.55;18.27;;;9.60;93.70;;;;;;4831449;29;20069;-70
2021/11/10 06:59:22;;;;;;;45.72;18.25;;;9.60;93.70;;;;;;4817974;29;20059;-70
2021/11/10 07:01:50;;;;;;;41.47;18.10;;;9.60;93.70;;;;;;4816351;29;20089;-72
2021/11/10 07:04:18;;;;;;;40.50;17.63;;;9.60;93.80;;;;;;4827330;29;20419;-72
2021/11/10 07:06:45;;;;;;;51.17;20.90;;;9.60;93.80;;;;;;4827831;29;20054;-72
2021/11/10 07:09:14;;;;;;;79.30;20.55;;;9.60;93.80;;;;;;4799251;29;20046;-72
2021/11/10 07:11:42;;;;;;;40.53;16.63;;;9.60;93.80;;;;;;4819191;29;20042;-71
2021/11/10 07:14:10;;;;;;;41.00;17.00;;;9.60;93.80;;;;;;4807772;29;20400;-72
2021/11/10 07:16:37;;;;;;;50.35;19.40;;;9.60;93.80;;;;;;4816826;29;20054;-73
2021/11/10 07:19:05;;;;;;;44.72;18.08;;;9.50;93.80;;;;;;4810190;29;20058;-72
2021/11/10 07:21:36;;;;;;;39.75;16.70;;;9.60;93.80;;;;;;4816444;29;20419;-71
2021/11/10 07:24:04;;;;;;;61.78;21.92;;;9.60;93.80;;;;;;4814886;29;20058;-72
2021/11/10 07:26:33;;;;;;;44.92;18.00;;;9.60;93.80;;;;;;4824599;29;20417;-72
2021/11/10 07:29:01;;;;;;;43.45;17.70;;;9.60;93.80;;;;;;4823305;29;20049;-72
2021/11/10 07:31:29;;;;;;;43.40;18.50;;;9.60;93.80;;;;;;4815357;29;20067;-72
2021/11/10 07:33:59;;;;;;;40.78;17.05;;;9.60;93.80;;;;;;4815145;29;20047;-73
2021/11/10 07:36:30;;;;;;;44.75;17.83;;;9.60;93.80;;;;;;4821541;29;20051;-73
2021/11/10 07:38:58;;;;;;;36.90;16.67;;;9.70;93.80;;;;;;4800102;29;20046;-73
2021/11/10 07:41:32;;;;;;;34.67;16.50;;;9.60;93.80;;;;;;4821477;29;20053;-72
2021/11/10 07:44:00;;;;;;;;;;;9.70;93.80;;;;;;4821393;29;20046;-73
2021/11/10 07:46:31;;;;;;;38.72;16.02;;;9.70;93.80;;;;;;4815145;29;19925;-73
2021/11/10 07:48:59;;;;;;;40.45;17.13;;;9.70;93.70;;;;;;4825832;29;20061;-73
2021/11/10 07:51:27;;;;;;;38.95;17.00;;;9.70;93.70;;;;;;4818440;29;20055;-73
2021/11/10 07:53:55;;;;;;;43.78;17.70;;;9.70;93.70;;;;;;4814997;29;20497;-73
2021/11/10 07:56:23;;;;;;;42.92;17.08;;;9.70;93.80;;;;;;4832936;29;20545;-73
2021/11/10 07:58:51;;;;;;;44.13;18.10;;;9.70;93.80;;;;;;4818940;29;20416;-73
2021/11/10 08:01:19;;;;;;;38.95;17.17;;;9.70;93.80;;;;;;4821814;29;20551;-71
2021/11/10 08:03:48;;;;;;;42.53;18.10;;;9.70;93.90;;;;;;4829846;29;20072;-74
2021/11/10 08:06:16;;;;;;;47.42;19.13;;;9.70;93.90;;;;;;4815226;29;20039;-73
2021/11/10 08:08:44;;;;;;;45.88;18.88;;;9.70;93.90;;;;;;4798458;29;20500;-73
2021/11/10 08:11:11;;;;;;;40.00;18.85;;;9.80;93.90;;;;;;4820049;29;20050;-72
2021/11/10 08:13:39;;;;;;;33.25;17.27;;;9.80;93.90;;;;;;4820286;29;20051;-75
2021/11/10 08:16:07;;;;;;;39.28;17.42;;;9.80;93.80;;;;;;4819104;29;20065;-71
2021/11/10 08:18:34;;;;;;;35.17;17.42;;;9.80;93.80;;;;;;4818746;29;20058;-73
2021/11/10 08:21:02;;;;;;;39.38;17.85;;;9.80;93.70;;;;;;4817222;29;20435;-72
2021/11/10 08:23:30;;;;;;;37.40;18.70;;;9.80;93.70;;;;;;4815806;29;20057;-73
2021/11/10 08:25:58;;;;;;;46.80;18.70;;;9.80;93.60;;;;;;4798463;29;20050;-72
2021/11/10 08:28:27;;;;;;;34.13;16.88;;;9.90;93.60;;;;;;4813729;29;20504;-72
2021/11/10 08:30:55;;;;;;;39.28;17.45;;;9.90;93.60;;;;;;4815914;29;20488;-72
2021/11/10 08:33:28;;;;;;;38.58;18.33;;;10.00;93.60;;;;;;4820658;29;20532;-73
2021/11/10 08:35:57;;;;;;;41.70;18.98;;;10.00;93.50;;;;;;4824327;29;20059;-73
2021/11/10 08:38:26;;;;;;;44.88;19.38;;;10.00;93.40;;;;;;4816911;29;20066;-73
2021/11/10 08:40:54;;;;;;;39.45;18.90;;;10.10;93.40;;;;;;4817085;29;20046;-73
2021/11/10 08:43:22;;;;;;;38.08;18.52;;;10.10;93.40;;;;;;4814603;29;20042;-73
2021/11/10 08:45:54;;;;;;;41.45;18.20;;;10.20;93.40;;;;;;4815962;29;20065;-72
2021/11/10 08:48:23;;;;;;;38.78;20.30;;;10.20;93.30;;;;;;4811243;29;20065;-71
2021/11/10 08:50:52;;;;;;;40.80;18.23;;;10.20;93.30;;;;;;4813640;29;20039;-73
2021/11/10 08:53:22;;;;;;;38.45;18.38;;;10.20;93.30;;;;;;4805256;29;20059;-73
2021/11/10 08:55:55;;;;;;;39.92;18.85;;;10.20;93.20;;;;;;4824454;29;20058;-73
2021/11/10 08:58:23;;;;;;;;;;;10.20;93.30;;;;;;4825472;29;20050;-73
2021/11/10 09:00:52;;;;;;;38.10;18.20;;;10.30;93.20;;;;;;4824857;29;19925;-73
2021/11/10 09:03:24;;;;;;;37.90;18.80;;;10.30;93.20;;;;;;4824034;29;20069;-72
2021/11/10 09:05:53;;;;;;;38.45;17.95;;;10.30;93.10;;;;;;4806954;29;20051;-72
2021/11/10 09:08:25;;;;;;;38.65;18.02;;;10.30;93.00;;;;;;4805507;29;20066;-73
2021/11/10 09:10:52;;;;;;;36.28;17.60;;;10.30;93.00;;;;;;4820306;29;20051;-73
2021/11/10 09:13:21;;;;;;;37.42;18.08;;;10.30;93.00;;;;;;4808780;29;20069;-73
2021/11/10 09:15:49;;;;;;;42.78;19.20;;;10.40;93.00;;;;;;4814043;29;20061;-72
2021/11/10 09:18:16;;;;;;;38.63;18.42;;;10.40;93.00;;;;;;4815887;29;20516;-72
2021/11/10 09:20:46;;;;;;;38.92;18.35;;;10.40;93.00;;;;;;4814157;29;20039;-72
2021/11/10 09:23:15;;;;;;;39.40;18.92;;;10.40;92.90;;;;;;4827623;29;20053;-72
2021/11/10 09:25:45;;;;;;;34.95;17.60;;;10.40;92.90;;;;;;4815335;29;20046;-72
2021/11/10 09:28:15;;;;;;;40.20;17.20;;;10.50;92.90;;;;;;4812991;29;20065;-71
2021/11/10 09:30:45;;;;;;;40.85;18.25;;;10.50;92.80;;;;;;4814445;29;20057;-73
2021/11/10 09:33:19;;;;;;;39.42;17.88;;;10.50;92.80;;;;;;4803791;29;20413;-72
2021/11/10 09:35:49;;;;;;;35.53;17.17;;;10.50;92.80;;;;;;4797206;29;20047;-72
2021/11/10 09:38:18;;;;;;;39.45;18.95;;;10.50;92.80;;;;;;4800330;29;20406;-72
2021/11/10 09:40:45;;;;;;;38.55;18.58;;;10.50;92.70;;;;;;4780992;29;20057;-72
2021/11/10 09:43:15;;;;;;;38.78;19.05;;;10.50;92.70;;;;;;4795610;29;20051;-72
2021/11/10 09:45:46;;;;;;;35.78;18.73;;;10.50;92.70;;;;;;4799593;29;20520;-73
2021/11/10 09:48:15;;;;;;;33.85;16.92;;;10.60;92.70;;;;;;4795650;29;20051;-73
2021/11/10 09:50:46;;;;;;;33.63;17.02;;;10.60;92.70;;;;;;4795620;29;20385;-73
2021/11/10 09:53:14;;;;;;;38.95;18.52;;;10.50;92.60;;;;;;4794695;29;20047;-73
2021/11/10 09:55:42;;;;;;;32.83;17.67;;;10.60;92.70;;;;;;4791079;29;20051;-73
2021/11/10 09:58:10;;;;;;;34.53;16.73;;;10.60;92.70;;;;;;4794869;29;20462;-73
2021/11/10 10:00:43;;;;;;;33.00;14.98;;;10.70;92.60;;;;;;4810236;29;20054;-73
2021/11/10 10:03:12;;;;;;;33.95;17.48;;;10.70;92.60;;;;;;4795789;29;20051;-73
2021/11/10 10:05:44;;;;;;;36.70;17.45;;;10.70;92.50;;;;;;4796591;29;20042;-73
2021/11/10 10:08:14;;;;;;;33.65;16.25;;;10.80;92.40;;;;;;4779896;29;20062;-73
2021/11/10 10:10:42;;;;;;;37.42;18.02;;;10.80;92.30;;;;;;4809914;29;20050;-73
2021/11/10 10:13:10;;;;;;;35.85;18.05;;;10.80;92.30;;;;;;4796136;29;20047;-73
2021/11/10 10:15:40;;;;;;;36.83;18.55;;;10.80;92.20;;;;;;4796518;29;20485;-73
2021/11/10 10:18:23;;;;;;;38.97;17.17;;;10.80;92.20;;;;;;4796529;29;20051;-71
2021/11/10 10:20:56;;;;;;;43.15;18.85;;;10.80;92.10;;;;;;4796485;29;20054;-72
2021/11/10 10:23:29;;;;;;;44.65;17.58;;;10.80;92.10;;;;;;4780283;29;20055;-73
2021/11/10 10:26:06;;;;;;;39.13;18.17;;;10.90;92.10;;;;;;4780287;29;20513;-73
2021/11/10 10:28:37;;;;;;;41.08;19.30;;;10.90;92.10;;;;;;4799973;29;20055;-73
2021/11/10 10:31:20;;;;;;;41.50;19.77;;;11.00;92.10;;;;;;4794435;29;20405;-72
2021/11/10 10:33:52;;;;;;;34.75;17.27;;;11.00;92.10;;;;;;4808762;29;20054;-73
2021/11/10 10:36:23;;;;;;;30.88;17.65;;;11.10;92.10;;;;;;4826963;29;20047;-72
2021/11/10 10:38:55;;;;;;;38.53;18.40;;;11.30;92.10;;;;;;4814447;29;20046;-72
2021/11/10 10:41:28;;;;;;;35.25;17.88;;;11.30;91.80;;;;;;4805060;29;20438;-72
2021/11/10 10:44:02;;;;;;;32.30;16.63;;;11.40;91.60;;;;;;4803752;29;20054;-72
2021/11/10 10:46:32;;;;;;;30.20;16.27;;;11.50;91.40;;;;;;4804720;29;20051;-72
2021/11/10 10:49:17;;;;;;;31.42;15.98;;;11.60;91.20;;;;;;4804863;29;20055;-73
2021/11/10 10:51:49;;;;;;;29.27;15.30;;;11.60;91.10;;;;;;4805085;29;20058;-73
2021/11/10 10:54:18;;;;;;;26.80;15.35;;;11.70;90.90;;;;;;4815842;29;20050;-72
2021/11/10 10:56:55;;;;;;;25.95;14.10;;;11.70;90.70;;;;;;4822559;29;20046;-73
2021/11/10 10:59:25;;;;;;;20.48;12.85;;;11.70;90.50;;;;;;4823222;29;20061;-72
2021/11/10 11:01:59;;;;;;;25.45;13.15;;;11.80;90.40;;;;;;4822814;29;20408;-73
2021/11/10 11:04:31;;;;;;;27.65;14.00;;;11.80;90.30;;;;;;4807402;29;20046;-74
2021/11/10 11:07:03;;;;;;;26.08;14.52;;;11.80;90.20;;;;;;4797892;29;20292;-73
2021/11/10 11:09:51;;;;;;;29.90;15.60;;;11.80;90.20;;;;;;4813455;29;20093;-73
2021/11/10 11:15:13;;;;;;;28.00;16.05;;;11.80;89.90;;;;;;4812840;29;20062;-71
2021/11/10 11:17:45;;;;;;;32.83;15.68;;;11.80;89.80;;;;;;4809265;29;20394;-74
2021/11/10 11:20:22;;;;;;;25.25;14.15;;;11.70;89.80;;;;;;4805580;29;20053;-72
2021/11/10 11:22:51;;;;;;;20.33;12.60;;;11.70;89.70;;;;;;4797335;29;20047;-72
2021/11/10 11:25:29;;;;;;;25.63;14.00;;;11.80;89.60;;;;;;4810981;29;20058;-74
2021/11/10 11:28:03;;;;;;;26.55;13.82;;;11.80;89.60;;;;;;4812528;29;20067;-73
2021/11/10 11:30:32;;;;;;;;;;;11.90;89.60;;;;;;4812168;29;20055;-72
2021/11/10 11:33:01;;;;;;;24.33;13.45;;;12.10;89.30;;;;;;4809105;29;20414;-72
2021/11/10 11:35:40;;;;;;;25.35;12.45;;;12.30;89.10;;;;;;4841489;29;20522;-74
2021/11/10 11:38:10;;;;;;;22.40;12.52;;;12.50;88.80;;;;;;4822095;29;20126;-73
2021/11/10 11:40:39;;;;;;;28.15;12.82;;;12.60;87.90;;;;;;4830135;29;20069;-72
2021/11/10 11:43:09;;;;;;;16.75;11.25;;;12.60;87.60;;;;;;4815409;29;20492;-73
2021/11/10 11:45:40;;;;;;;21.65;11.07;;;12.80;87.60;;;;;;4831123;29;20050;-73
2021/11/10 11:48:09;;;;;;;21.83;11.00;;;12.80;87.30;;;;;;4832818;29;20500;-72
2021/11/10 11:50:37;;;;;;;20.02;10.73;;;12.90;86.80;;;;;;4830725;29;20057;-72
2021/11/10 11:53:05;;;;;;;18.73;10.30;;;13.00;86.40;;;;;;4829417;29;20053;-73
2021/11/10 11:55:40;;;;;;;17.02;8.70;;;13.10;86.00;;;;;;4830493;29;20054;-72
2021/11/10 11:58:17;;;;;;;15.73;9.35;;;13.10;85.90;;;;;;4825098;29;20062;-72
2021/11/10 12:00:53;;;;;;;18.80;10.15;;;13.00;85.50;;;;;;4822350;29;20058;-72
2021/11/10 12:03:26;;;;;;;21.80;10.38;;;13.00;85.70;;;;;;4822320;29;20054;-73
2021/11/10 12:06:15;;;;;;;17.90;9.85;;;12.90;85.70;;;;;;4822891;29;20050;-73
2021/11/10 12:08:46;;;;;;;16.75;9.55;;;12.80;85.60;;;;;;4824716;29;20050;-72
2021/11/10 12:11:20;;;;;;;18.92;9.50;;;12.80;85.80;;;;;;4809378;29;20054;-72
2021/11/10 12:14:07;;;;;;;18.58;9.75;;;12.80;85.80;;;;;;4825988;29;20061;-73
2021/11/10 12:17:00;;;;;;;15.93;9.40;;;12.90;85.60;;;;;;4825973;29;20054;-73
2021/11/10 12:19:56;;;;;;;13.65;7.85;;;13.00;85.40;;;;;;4825763;29;20046;-72
2021/11/10 12:22:55;;;;;;;14.93;7.93;;;13.10;84.80;;;;;;4825695;29;20047;-73
2021/11/10 12:25:23;;;;;;;15.95;8.13;;;13.30;84.50;;;;;;4825567;29;20054;-71
2021/11/10 12:27:50;;;;;;;13.02;6.55;;;13.30;84.10;;;;;;4840280;29;20061;-71
2021/11/10 12:30:29;;;;;;;12.10;6.10;;;13.50;83.70;;;;;;4841536;29;20405;-73
2021/11/10 12:33:05;;;;;;;11.80;5.65;;;13.40;82.90;;;;;;4836308;29;20046;-72
2021/11/10 12:35:50;;;;;;;9.50;5.30;;;13.40;82.70;;;;;;4835051;29;20057;-72
2021/11/10 12:38:20;;;;;;;7.78;4.00;;;13.50;82.50;;;;;;4843884;29;20492;-72
2021/11/10 12:41:01;;;;;;;9.77;4.10;;;13.80;82.30;;;;;;4843585;29;20050;-72
2021/11/10 12:43:43;;;;;;;9.40;2.88;;;14.30;81.20;;;;;;4843752;29;20515;-72
2021/11/10 12:46:22;;;;;;;10.27;4.25;;;14.80;79.90;;;;;;4843644;29;20385;-72
2021/11/10 12:48:50;;;;;;;10.98;4.97;;;15.10;78.80;;;;;;4843770;29;20050;-72
2021/11/10 12:51:30;;;;;;;9.32;3.85;;;15.40;78.00;;;;;;4843503;29;20069;-72
2021/11/10 12:54:06;;;;;;;11.00;3.95;;;15.50;76.70;;;;;;4843512;29;20504;-72
2021/11/10 12:56:54;;;;;;;11.20;4.47;;;15.50;76.20;;;;;;4843149;29;20050;-73
2021/11/10 12:59:24;;;;;;;9.63;3.42;;;15.90;75.50;;;;;;4843119;29;20057;-73